TimeCST,TemperatureF,Dew PointF,Humidity,Sea Level PressureIn,VisibilityMPH,Wind Direction,Wind SpeedMPH,Gust SpeedMPH,PrecipitationIn,Events,Conditions,WindDirDegrees,DateUTC
12:11 AM,-2.2,-7.6,78,30.13,7.0,Calm,Calm,-,N/A,,Clear,0,2012-12-30 06:11:00
12:51 AM,1.4,-4.0,78,30.14,7.0,Calm,Calm,-,N/A,,Clear,0,2012-12-30 06:51:00
1:10 AM,1.4,-4.0,78,30.13,7.0,Calm,Calm,-,N/A,,Clear,0,2012-12-30 07:10:00
1:31 AM,1.4,-4.0,78,30.14,10.0,Calm,Calm,-,N/A,,Clear,0,2012-12-30 07:31:00
1:51 AM,1.4,-4.0,78,30.14,7.0,Calm,Calm,-,N/A,,Clear,0,2012-12-30 07:51:00
2:11 AM,1.4,-4.0,78,30.14,7.0,Calm,Calm,-,N/A,,Clear,0,2012-12-30 08:11:00
2:31 AM,1.4,-4.0,78,30.14,7.0,Calm,Calm,-,N/A,,Clear,0,2012-12-30 08:31:00
2:51 AM,1.4,-4.0,78,30.14,7.0,Calm,Calm,-,N/A,,Clear,0,2012-12-30 08:51:00
3:11 AM,1.4,-4.0,78,30.14,7.0,Calm,Calm,-,N/A,,Clear,0,2012-12-30 09:11:00
3:31 AM,1.4,-2.2,85,30.13,7.0,Calm,Calm,-,N/A,,Clear,0,2012-12-30 09:31:00
3:50 AM,1.4,-4.0,78,30.13,10.0,Calm,Calm,-,N/A,,Clear,0,2012-12-30 09:50:00
4:11 AM,1.4,-4.0,78,30.14,10.0,Calm,Calm,-,N/A,,Clear,0,2012-12-30 10:11:00
4:30 AM,1.4,-2.2,85,30.13,10.0,Calm,Calm,-,N/A,,Clear,0,2012-12-30 10:30:00
4:51 AM,3.2,-2.2,78,30.11,10.0,SE,4.6,-,N/A,,Clear,130,2012-12-30 10:51:00
5:11 AM,1.4,-4.0,78,30.11,10.0,Calm,Calm,-,N/A,,Clear,0,2012-12-30 11:11:00
5:31 AM,1.4,-4.0,78,30.11,10.0,Calm,Calm,-,N/A,,Clear,0,2012-12-30 11:31:00
5:51 AM,3.2,-2.2,78,30.11,10.0,Calm,Calm,-,N/A,,Clear,0,2012-12-30 11:51:00
6:11 AM,1.4,-4.0,78,30.10,10.0,Calm,Calm,-,N/A,,Clear,0,2012-12-30 12:11:00
6:31 AM,3.2,-0.4,85,30.10,10.0,SE,5.8,-,N/A,,Clear,140,2012-12-30 12:31:00
6:51 AM,1.4,-2.2,85,30.09,10.0,SSE,6.9,-,N/A,,Clear,150,2012-12-30 12:51:00
7:11 AM,3.2,-0.4,85,30.09,10.0,SE,6.9,-,N/A,,Clear,140,2012-12-30 13:11:00
7:30 AM,3.2,-0.4,85,30.09,10.0,SE,4.6,-,N/A,,Clear,140,2012-12-30 13:30:00
7:51 AM,3.2,-0.4,85,30.09,10.0,SSE,6.9,-,N/A,,Clear,150,2012-12-30 13:51:00
8:11 AM,3.2,-0.4,85,30.09,10.0,SSE,6.9,-,N/A,,Clear,150,2012-12-30 14:11:00
8:31 AM,3.2,-0.4,85,30.08,10.0,SE,5.8,-,N/A,,Clear,140,2012-12-30 14:31:00
8:51 AM,3.2,-0.4,85,30.07,10.0,Calm,Calm,-,N/A,,Clear,0,2012-12-30 14:51:00
9:11 AM,6.8,3.2,85,30.08,10.0,SSE,6.9,-,N/A,,Clear,150,2012-12-30 15:11:00
9:31 AM,8.6,5.0,85,30.06,10.0,SE,6.9,-,N/A,,Clear,140,2012-12-30 15:31:00
9:51 AM,10.4,6.8,85,30.05,10.0,SE,9.2,-,N/A,,Clear,140,2012-12-30 15:51:00
10:10 AM,10.4,6.8,85,30.05,10.0,SE,9.2,-,N/A,,Clear,140,2012-12-30 16:10:00
10:31 AM,10.4,6.8,85,30.04,10.0,SE,6.9,-,N/A,,Clear,130,2012-12-30 16:31:00
10:51 AM,10.4,6.8,85,30.03,10.0,SE,6.9,-,N/A,,Clear,130,2012-12-30 16:51:00
11:10 AM,10.4,6.8,85,30.02,10.0,SE,10.4,-,N/A,,Clear,140,2012-12-30 17:10:00
11:30 AM,12.2,10.4,92,30.00,10.0,SE,10.4,-,N/A,,Clear,140,2012-12-30 17:30:00
11:51 AM,14.0,12.2,93,29.99,10.0,SE,10.4,-,N/A,,Clear,140,2012-12-30 17:51:00
12:11 PM,15.8,12.2,86,29.96,10.0,SE,9.2,-,N/A,,Clear,140,2012-12-30 18:11:00
12:31 PM,17.6,14.0,86,29.93,10.0,SE,9.2,-,N/A,,Clear,130,2012-12-30 18:31:00
12:50 PM,17.6,15.8,93,29.91,10.0,SE,10.4,-,N/A,,Clear,130,2012-12-30 18:50:00
1:11 PM,19.4,17.6,93,29.90,10.0,SE,9.2,-,N/A,,Clear,130,2012-12-30 19:11:00
1:31 PM,21.2,17.6,86,29.88,10.0,SE,9.2,-,N/A,,Clear,130,2012-12-30 19:31:00
1:51 PM,21.2,17.6,86,29.88,10.0,SE,9.2,-,N/A,,Clear,140,2012-12-30 19:51:00
2:11 PM,21.2,17.6,86,29.86,10.0,SE,11.5,-,N/A,,Clear,140,2012-12-30 20:11:00
2:31 PM,21.2,17.6,86,29.85,10.0,SE,8.1,-,N/A,,Clear,140,2012-12-30 20:31:00
2:51 PM,21.2,17.6,86,29.85,10.0,SE,8.1,-,N/A,,Clear,130,2012-12-30 20:51:00
3:10 PM,21.2,17.6,86,29.86,10.0,SSE,8.1,-,N/A,,Clear,150,2012-12-30 21:10:00
3:30 PM,23.0,17.6,80,29.86,10.0,SSE,6.9,-,N/A,,Clear,150,2012-12-30 21:30:00
3:50 PM,21.2,15.8,80,29.86,10.0,SE,5.8,-,N/A,,Clear,140,2012-12-30 21:50:00
4:11 PM,21.2,15.8,80,29.86,10.0,Calm,Calm,-,N/A,,Clear,0,2012-12-30 22:11:00
4:36 PM,21.2,15.8,80,29.86,10.0,Calm,Calm,-,N/A,,Clear,0,2012-12-30 22:36:00
4:56 PM,21.2,17.6,86,29.86,10.0,Calm,Calm,-,N/A,,Clear,0,2012-12-30 22:56:00
5:11 PM,17.6,12.2,79,29.86,10.0,Calm,Calm,-,N/A,,Clear,0,2012-12-30 23:11:00
5:31 PM,15.8,12.2,86,29.87,10.0,Calm,Calm,-,N/A,,Clear,0,2012-12-30 23:31:00
5:50 PM,14.0,12.2,93,29.87,10.0,Calm,Calm,-,N/A,,Clear,0,2012-12-30 23:50:00
6:11 PM,12.2,10.4,92,29.89,7.0,Calm,Calm,-,N/A,,Clear,0,2012-12-31 00:11:00
6:31 PM,12.2,10.4,92,29.89,10.0,West,6.9,-,N/A,,Clear,260,2012-12-31 00:31:00
6:51 PM,12.2,8.6,85,29.89,10.0,West,9.2,-,N/A,,Clear,270,2012-12-31 00:51:00
7:10 PM,15.8,12.2,86,29.89,10.0,WNW,11.5,-,N/A,,Clear,290,2012-12-31 01:10:00
7:31 PM,17.6,14.0,86,29.89,10.0,WNW,11.5,-,N/A,,Clear,290,2012-12-31 01:31:00
7:51 PM,15.8,10.4,79,29.90,10.0,WNW,10.4,-,N/A,,Clear,300,2012-12-31 01:51:00
8:11 PM,15.8,10.4,79,29.90,10.0,NW,15.0,20.7,N/A,,Clear,310,2012-12-31 02:11:00
8:30 PM,15.8,10.4,79,29.92,10.0,NW,16.1,-,N/A,,Clear,310,2012-12-31 02:30:00
8:51 PM,14.0,8.6,79,29.93,10.0,NW,13.8,-,N/A,,Clear,310,2012-12-31 02:51:00
9:11 PM,14.0,8.6,79,29.94,10.0,NW,16.1,-,N/A,,Clear,310,2012-12-31 03:11:00
9:51 PM,12.2,8.6,85,29.96,10.0,NW,16.1,-,N/A,,Clear,310,2012-12-31 03:51:00
10:10 PM,12.2,8.6,85,29.97,10.0,NW,18.4,-,N/A,,Clear,310,2012-12-31 04:10:00
10:31 PM,15.8,12.2,86,29.98,10.0,NW,15.0,-,N/A,,Mostly Cloudy,320,2012-12-31 04:31:00
10:51 PM,15.8,12.2,86,29.99,10.0,NW,17.3,-,N/A,,Overcast,320,2012-12-31 04:51:00
11:11 PM,17.6,14.0,86,30.01,10.0,NW,13.8,-,N/A,,Overcast,320,2012-12-31 05:11:00
11:30 PM,19.4,14.0,80,30.02,10.0,NW,18.4,-,N/A,,Overcast,310,2012-12-31 05:30:00
11:50 PM,21.2,17.6,86,30.04,10.0,NNW,20.7,24.2,N/A,,Overcast,330,2012-12-31 05:50:00